Time;durP1;ratioP1;P1;durP2;ratioP2;P2;SDS_P1;SDS_P2;PMS_P1;PMS_P2;Temp;Humidity;BMP_temperature;BMP_pressure;BME280_temperature;BME280_humidity;BME280_pressure;Samples;Min_cycle;Max_cycle;Signal;HPM_P1;HPM_P2
2023/09/08 00:00:06;;;;;;;;;22.50;22.50;;;;;26.61;55.86;101136.22;4997933;28;45927;-75
2023/09/08 00:02:31;;;;;;;;;21.00;20.50;;;;;26.53;55.96;101129.72;4985799;28;45505;-75
2023/09/08 00:04:56;;;;;;;;;26.75;25.00;;;;;26.54;56.76;101140.53;4996966;28;45692;-75
2023/09/08 00:07:22;;;;;;;;;21.00;21.00;;;;;26.57;56.26;101144.84;4986771;28;45551;-75
2023/09/08 00:09:47;;;;;;;;;25.50;23.25;;;;;26.35;56.25;101113.16;4996095;28;45512;-75
2023/09/08 00:12:13;;;;;;;;;26.50;24.00;;;;;26.50;56.23;101139.09;4993426;28;46260;-75
2023/09/08 00:14:38;;;;;;;;;25.00;23.00;;;;;26.51;56.61;101149.03;4997332;28;45785;-75
2023/09/08 00:17:04;;;;;;;;;22.75;21.50;;;;;26.43;56.54;101148.91;4996911;28;45410;-75
2023/09/08 00:19:29;;;;;;;;;25.25;24.25;;;;;26.31;56.40;101123.53;4996915;28;45657;-75
2023/09/08 00:21:56;;;;;;;;;21.25;21.25;;;;;26.41;56.71;101145.41;4998549;28;45441;-75
2023/09/08 00:24:21;;;;;;;;;21.25;20.75;;;;;26.39;56.58;101141.97;4998566;28;45453;-75
2023/09/08 00:26:46;;;;;;;;;21.00;21.00;;;;;26.44;56.96;101153.34;4997779;28;45455;-75
2023/09/08 00:29:12;;;;;;;;;26.75;24.00;;;;;26.34;56.88;101139.66;4995336;28;46252;-75
2023/09/08 00:31:37;;;;;;;;;27.50;24.75;;;;;26.31;57.15;101134.50;4994095;28;45567;-75
2023/09/08 00:34:03;;;;;;;;;27.75;25.50;;;;;26.35;57.04;101141.41;4990091;28;45312;-75
2023/09/08 00:36:28;;;;;;;;;27.75;26.75;;;;;26.32;56.97;101140.81;4996124;28;45486;-75
2023/09/08 00:38:53;;;;;;;;;22.75;22.75;;;;;26.37;57.12;101150.31;4997523;28;45329;-75
2023/09/08 00:41:19;;;;;;;;;24.75;23.75;;;;;26.31;56.86;101147.28;4997185;28;45202;-75
2023/09/08 00:43:44;;;;;;;;;24.75;23.75;;;;;26.21;57.19;101133.59;4998782;28;45327;-75
2023/09/08 00:46:10;;;;;;;;;20.75;20.75;;;;;26.31;57.80;101142.69;4997110;28;45817;-75
2023/09/08 00:48:37;;;;;;;;;24.25;23.25;;;;;26.28;57.66;101144.84;4996974;28;45462;-75
2023/09/08 00:51:04;;;;;;;;;21.25;21.00;;;;;26.16;57.49;101125.84;4993898;28;48111;-75
2023/09/08 00:53:30;;;;;;;;;23.00;21.25;;;;;26.18;57.75;101133.91;4996868;28;45252;-75
2023/09/08 00:55:56;;;;;;;;;21.00;21.00;;;;;26.19;57.70;101141.94;4999954;28;45360;-75
2023/09/08 00:58:21;;;;;;;;;25.50;22.25;;;;;26.19;57.27;101139.19;4999353;28;45324;-75
2023/09/08 01:00:47;;;;;;;;;24.00;22.25;;;;;26.16;57.63;101141.38;4998098;28;46491;-75
2023/09/08 01:03:12;;;;;;;;;25.00;22.75;;;;;26.12;57.83;101135.31;4996261;28;45430;-75
2023/09/08 01:05:38;;;;;;;;;24.00;21.50;;;;;26.10;57.75;101137.34;5002227;28;45308;-75
2023/09/08 01:08:05;;;;;;;;;22.00;20.75;;;;;26.09;57.71;101141.06;4999776;28;45284;-75
2023/09/08 01:10:30;;;;;;;;;23.75;23.75;;;;;26.05;57.50;101128.69;4998849;28;45719;-75
2023/09/08 01:12:57;;;;;;;;;23.00;23.00;;;;;26.10;58.04;101140.06;5000501;28;45497;-75
2023/09/08 01:15:22;;;;;;;;;25.00;24.75;;;;;26.04;58.12;101132.41;5002017;28;45531;-75
2023/09/08 01:17:48;;;;;;;;;22.00;20.75;;;;;26.02;58.25;101135.28;4998847;28;45498;-75
2023/09/08 01:20:21;;;;;;;;;24.50;21.25;;;;;25.89;58.05;101110.03;4999220;28;47912;-75
2023/09/08 01:22:56;;;;;;;;;22.00;21.50;;;;;26.05;58.25;101143.22;4987979;28;45763;-75
2023/09/08 01:25:23;;;;;;;;;21.75;21.75;;;;;25.98;58.65;101133.00;5001691;28;45381;-75
2023/09/08 01:27:57;;;;;;;;;20.75;18.50;;;;;25.94;57.88;101120.56;4999536;28;45468;-75
2023/09/08 01:30:24;;;;;;;;;20.50;18.75;;;;;26.01;58.05;101143.63;5015678;28;48481;-75
2023/09/08 01:32:52;;;;;;;;;21.25;21.25;;;;;25.98;58.34;101141.22;4998971;28;45367;-75
2023/09/08 01:35:17;;;;;;;;;24.00;22.50;;;;;25.97;58.65;101148.53;4994942;28;45451;-75
2023/09/08 01:37:47;;;;;;;;;16.75;16.00;;;;;25.94;58.36;101139.72;4994640;28;45295;-75
2023/09/08 01:40:13;;;;;;;;;24.75;21.50;;;;;25.84;58.52;101126.91;5001107;28;45413;-75
2023/09/08 01:42:39;;;;;;;;;23.25;22.00;;;;;25.89;58.90;101138.28;4995769;28;45332;-75
2023/09/08 01:45:05;;;;;;;;;20.00;20.00;;;;;25.81;58.71;101126.28;5001355;28;45539;-75
2023/09/08 01:47:31;;;;;;;;;22.00;21.50;;;;;25.83;58.98;101135.22;4994492;28;46253;-75
2023/09/08 01:49:56;;;;;;;;;23.75;23.25;;;;;25.83;59.09;101130.63;4992125;28;48151;-75
2023/09/08 01:52:22;;;;;;;;;23.50;23.50;;;;;25.74;58.81;101122.38;5000897;28;45370;-75
2023/09/08 01:54:47;;;;;;;;;24.00;23.00;;;;;25.83;59.46;101141.56;5016253;28;45261;-75
2023/09/08 01:57:12;;;;;;;;;25.00;23.25;;;;;25.80;59.25;101136.38;4999920;28;45249;-75
2023/09/08 01:59:38;;;;;;;;;22.50;20.75;;;;;25.75;59.12;101135.06;4997406;28;47502;-75
2023/09/08 02:02:03;;;;;;;;;22.25;21.50;;;;;25.73;59.82;101132.47;4996799;28;45407;-75
2023/09/08 02:04:29;;;;;;;;;23.75;21.00;;;;;25.75;59.89;101140.53;4997003;28;45900;-75
2023/09/08 02:06:54;;;;;;;;;22.50;22.50;;;;;25.67;59.59;101130.28;4994896;28;45636;-75
2023/09/08 02:09:19;;;;;;;;;25.25;24.00;;;;;25.67;59.79;101133.00;5000709;28;45233;-75
2023/09/08 02:11:45;;;;;;;;;24.50;22.25;;;;;25.69;59.45;101134.63;4997916;28;45792;-75
2023/09/08 02:14:10;;;;;;;;;22.00;19.50;;;;;25.62;59.71;101121.63;5000235;28;45310;-75
2023/09/08 02:16:35;;;;;;;;;23.00;22.75;;;;;25.68;60.13;101132.88;4998470;28;45367;-75
2023/09/08 02:19:01;;;;;;;;;21.25;19.50;;;;;25.57;60.37;101118.44;5000586;28;45508;-75
2023/09/08 02:21:26;;;;;;;;;23.25;22.00;;;;;25.64;60.27;101144.22;5000944;28;45379;-75
2023/09/08 02:23:51;;;;;;;;;24.75;21.25;;;;;25.61;60.12;101139.03;4994879;28;45391;-75
2023/09/08 02:26:17;;;;;;;;;19.75;18.25;;;;;25.64;60.26;101155.16;4997484;28;45425;-75
2023/09/08 02:28:42;;;;;;;;;21.00;19.00;;;;;25.51;59.94;101139.88;4996892;28;47062;-75
2023/09/08 02:31:07;;;;;;;;;22.00;21.00;;;;;25.54;60.29;101144.16;4999327;28;45693;-75
2023/09/08 02:33:33;;;;;;;;;20.25;19.25;;;;;25.52;60.37;101157.13;4998868;28;47100;-75
2023/09/08 02:36:05;;;;;;;;;23.75;22.75;;;;;25.56;60.38;101155.84;4998928;28;45391;-75
2023/09/08 02:38:31;;;;;;;;;24.75;24.00;;;;;25.55;60.63;101159.59;4997060;28;45461;-75
2023/09/08 02:40:57;;;;;;;;;24.00;23.00;;;;;25.52;60.44;101155.25;4999946;28;45350;-75
2023/09/08 02:43:22;;;;;;;;;20.75;19.50;;;;;25.51;61.01;101153.53;5001351;28;45631;-75
2023/09/08 02:45:47;;;;;;;;;22.25;22.25;;;;;25.46;60.33;101152.19;4999434;28;45458;-75
2023/09/08 02:48:13;;;;;;;;;23.00;23.00;;;;;25.41;60.49;101138.06;4996055;28;46123;-75
2023/09/08 02:50:38;;;;;;;;;26.75;24.00;;;;;25.47;60.66;101151.19;4995167;28;45376;-75
2023/09/08 02:53:03;;;;;;;;;21.25;20.00;;;;;25.44;60.64;101149.63;4991356;28;45364;-75
2023/09/08 02:55:29;;;;;;;;;21.25;20.75;;;;;25.43;60.86;101150.63;4993710;28;45480;-75
2023/09/08 02:57:56;;;;;;;;;20.50;19.75;;;;;25.37;60.63;101147.56;4997196;28;46327;-75
2023/09/08 03:00:21;;;;;;;;;23.00;21.25;;;;;25.37;60.78;101150.28;4995934;28;45506;-75
2023/09/08 03:02:46;;;;;;;;;21.75;21.75;;;;;25.43;60.78;101166.16;4979907;28;45474;-75
2023/09/08 03:05:12;;;;;;;;;22.00;18.75;;;;;25.41;61.42;101163.56;4998695;28;46063;-75
2023/09/08 03:07:38;;;;;;;;;20.75;20.75;;;;;25.42;61.29;101169.88;5001109;28;47399;-75
2023/09/08 03:10:05;;;;;;;;;25.75;23.00;;;;;25.27;60.63;101142.91;4998275;28;45513;-75
2023/09/08 03:12:30;;;;;;;;;21.75;21.75;;;;;25.40;60.70;101159.06;4997686;28;45974;-75
2023/09/08 03:14:55;;;;;;;;;21.00;19.50;;;;;25.31;61.18;101146.25;4997618;28;46940;-75
2023/09/08 03:17:21;;;;;;;;;18.75;18.00;;;;;25.20;60.74;101124.44;4997428;28;46120;-75
2023/09/08 03:19:46;;;;;;;;;23.25;22.00;;;;;25.41;61.33;101158.09;4995853;28;45498;-75
2023/09/08 03:22:11;;;;;;;;;21.25;19.75;;;;;25.27;61.31;101139.31;4995690;28;45371;-75
2023/09/08 03:24:37;;;;;;;;;21.50;20.25;;;;;25.32;60.86;101147.97;4994250;28;45672;-75
2023/09/08 03:27:02;;;;;;;;;25.50;21.25;;;;;25.35;61.26;101139.50;5001653;28;47405;-75
2023/09/08 03:29:27;;;;;;;;;23.00;21.50;;;;;25.36;60.96;101154.91;4997232;28;45441;-75
2023/09/08 03:31:53;;;;;;;;;20.50;18.75;;;;;25.25;61.33;101133.09;4998812;28;45593;-75
2023/09/08 03:34:20;;;;;;;;;23.75;21.50;;;;;25.19;61.54;101131.75;4996518;28;45372;-75
2023/09/08 03:36:46;;;;;;;;;26.50;24.25;;;;;25.24;61.36;101145.00;4996913;28;45458;-75
2023/09/08 03:39:11;;;;;;;;;20.75;20.00;;;;;25.21;61.92;101139.81;4999588;28;45617;-75
2023/09/08 03:41:36;;;;;;;;;27.25;21.00;;;;;25.18;61.77;101140.09;4998510;28;45377;-75
2023/09/08 03:44:02;;;;;;;;;25.50;21.00;;;;;25.24;61.54;101145.00;4998258;28;45311;-75
2023/09/08 03:46:27;;;;;;;;;19.50;19.50;;;;;25.22;61.43;101147.88;4997344;28;45437;-75
2023/09/08 03:48:58;;;;;;;;;16.50;16.50;;;;;25.23;61.75;101143.28;4996343;28;45359;-75
2023/09/08 03:51:23;;;;;;;;;22.25;20.00;;;;;25.24;61.82;101142.28;4997686;28;45646;-75
2023/09/08 03:53:49;;;;;;;;;18.75;18.75;;;;;25.27;62.12;101150.25;4984569;28;45605;-75
2023/09/08 03:56:14;;;;;;;;;17.00;17.00;;;;;25.18;61.88;101134.66;4995263;28;46342;-75
2023/09/08 03:58:39;;;;;;;;;20.00;20.00;;;;;25.12;61.79;101128.69;4986403;28;45653;-76
2023/09/08 04:01:05;;;;;;;;;23.75;19.75;;;;;25.15;61.58;101130.31;4999558;28;45478;-75
2023/09/08 04:03:30;;;;;;;;;26.00;24.75;;;;;25.23;61.87;101146.88;4997771;28;45341;-75
2023/09/08 04:05:55;;;;;;;;;13.25;13.25;;;;;25.13;62.22;101138.63;4995440;28;45759;-75
2023/09/08 04:08:20;;;;;;;;;20.25;19.75;;;;;25.09;62.16;101128.09;4998594;28;45313;-76
2023/09/08 04:10:46;;;;;;;;;20.25;19.50;;;;;25.09;61.79;101126.25;4994935;28;45488;-76
2023/09/08 04:13:11;;;;;;;;;21.50;21.50;;;;;25.08;61.94;101127.25;4997755;28;45827;-75
2023/09/08 04:15:36;;;;;;;;;18.75;18.75;;;;;25.12;62.05;101134.16;4997762;28;45287;-76
2023/09/08 04:18:02;;;;;;;;;22.00;20.00;;;;;25.12;61.94;101145.06;4993754;28;45545;-75
2023/09/08 04:20:28;;;;;;;;;21.00;20.50;;;;;25.08;61.92;101140.03;4997943;28;45347;-76
2023/09/08 04:22:53;;;;;;;;;19.75;18.25;;;;;25.08;62.37;101143.63;4996683;28;45451;-76
2023/09/08 04:25:18;;;;;;;;;20.75;20.25;;;;;25.09;62.36;101148.09;4990648;28;47028;-75
2023/09/08 04:27:44;;;;;;;;;24.50;22.00;;;;;25.04;62.29;101133.09;4994126;28;45395;-75
2023/09/08 04:30:10;;;;;;;;;19.25;18.00;;;;;24.95;62.24;101134.78;4988700;28;45446;-75
2023/09/08 04:32:37;;;;;;;;;21.25;20.50;;;;;25.03;62.54;101137.72;4996635;28;45478;-76
2023/09/08 04:35:03;;;;;;;;;22.50;21.50;;;;;24.99;62.03;101147.16;4994993;28;45391;-76
2023/09/08 04:37:30;;;;;;;;;23.50;22.25;;;;;24.98;62.51;101137.25;4998859;28;45852;-76
2023/09/08 04:39:55;;;;;;;;;19.25;19.25;;;;;25.06;62.31;101151.09;4993117;28;45372;-76
2023/09/08 04:42:21;;;;;;;;;21.00;21.00;;;;;25.01;62.27;101147.91;4996584;28;45849;-76
2023/09/08 04:44:46;;;;;;;;;21.50;19.50;;;;;25.00;62.42;101134.38;4995768;28;45349;-76
2023/09/08 04:47:11;;;;;;;;;18.50;18.50;;;;;25.00;62.19;101142.56;4997245;28;45362;-76
2023/09/08 04:49:37;;;;;;;;;20.00;19.50;;;;;25.05;62.31;101152.09;4998534;28;45472;-75
2023/09/08 04:52:03;;;;;;;;;23.50;22.75;;;;;24.99;62.66;101135.38;4998511;28;45436;-76
2023/09/08 04:54:28;;;;;;;;;21.25;20.50;;;;;25.01;62.59;101145.19;4993736;28;47438;-76
2023/09/08 04:56:54;;;;;;;;;21.25;19.75;;;;;25.09;62.63;101147.22;4996471;28;45460;-76
2023/09/08 04:59:20;;;;;;;;;17.75;17.50;;;;;25.09;62.51;101152.69;4997529;28;45268;-76
2023/09/08 05:01:45;;;;;;;;;24.00;23.25;;;;;25.02;62.04;101132.38;4998624;28;45480;-76
2023/09/08 05:04:11;;;;;;;;;22.25;20.50;;;;;25.05;62.66;101141.16;4988108;28;46343;-75
2023/09/08 05:06:37;;;;;;;;;17.50;17.50;;;;;25.08;62.17;101148.25;4996964;28;45380;-76
2023/09/08 05:09:02;;;;;;;;;17.50;17.50;;;;;25.10;62.15;101151.69;4996858;28;45603;-76
2023/09/08 05:11:28;;;;;;;;;19.50;17.50;;;;;25.00;62.17;101131.66;4993235;28;45429;-76
2023/09/08 05:13:53;;;;;;;;;17.00;17.00;;;;;24.99;62.14;101130.75;4995383;28;45631;-76
2023/09/08 05:16:25;;;;;;;;;18.50;17.50;;;;;25.07;62.12;101132.84;4996144;28;45387;-74
2023/09/08 05:18:51;;;;;;;;;17.50;16.75;;;;;25.07;61.17;101138.31;4991150;28;45352;-74
2023/09/08 05:21:16;;;;;;;;;19.25;18.00;;;;;25.15;61.32;101149.41;4978902;28;45399;-75
2023/09/08 05:23:41;;;;;;;;;17.25;17.25;;;;;25.13;61.47;101143.22;4994946;28;45581;-75
2023/09/08 05:26:07;;;;;;;;;16.00;14.75;;;;;25.06;61.60;101142.91;4996531;28;46122;-75
2023/09/08 05:28:32;;;;;;;;;19.75;18.00;;;;;25.17;61.72;101155.59;4977002;28;45408;-75
2023/09/08 05:30:57;;;;;;;;;18.75;18.50;;;;;25.07;61.52;101150.06;4992773;28;45427;-75
2023/09/08 05:33:23;;;;;;;;;17.00;17.00;;;;;25.16;61.80;101153.91;4997196;28;45353;-75
2023/09/08 05:35:48;;;;;;;;;18.25;17.75;;;;;25.17;61.23;101162.94;5006911;28;45377;-75
2023/09/08 05:38:14;;;;;;;;;17.50;16.50;;;;;25.11;61.35;101147.97;4997273;28;45319;-75
2023/09/08 05:40:39;;;;;;;;;19.50;18.25;;;;;25.17;61.59;101155.59;4997651;28;45533;-75
2023/09/08 05:43:05;;;;;;;;;21.25;18.75;;;;;25.14;61.74;101151.28;4992921;28;48515;-74
2023/09/08 05:45:34;;;;;;;;;19.75;18.25;;;;;25.17;61.90;101152.03;4991470;28;45404;-75
2023/09/08 05:47:59;;;;;;;;;22.00;21.50;;;;;25.15;61.39;101146.69;4998586;28;45624;-74
2023/09/08 05:50:25;;;;;;;;;20.00;18.75;;;;;25.00;61.42;101131.66;5001356;28;45502;-75
2023/09/08 05:52:51;;;;;;;;;24.00;23.25;;;;;25.11;61.50;101147.97;5000304;28;46333;-74
2023/09/08 05:55:16;;;;;;;;;10.75;10.75;;;;;25.17;61.22;101160.22;4995538;28;45540;-75
2023/09/08 05:57:42;;;;;;;;;19.75;19.25;;;;;25.09;62.04;101160.88;5001400;28;45726;-74
2023/09/08 06:00:08;;;;;;;;;23.50;22.00;;;;;25.14;61.53;101162.22;4999047;28;45595;-74
2023/09/08 06:02:49;;;;;;;;;;;;;;;;;;;;;
2023/09/08 06:05:25;;;;;;;;;19.00;17.25;;;;;25.15;61.94;101168.53;4994332;28;72246;-75
2023/09/08 06:07:53;;;;;;;;;19.50;17.50;;;;;24.82;62.03;101106.81;4999644;28;45553;-75
2023/09/08 06:10:18;;;;;;;;;19.25;18.50;;;;;24.86;61.98;101128.25;5008738;28;45460;-75
2023/09/08 06:13:01;;;;;;;;;;;;;;;;;;;;;
2023/09/08 06:15:39;;;;;;;;;19.25;18.75;;;;;25.13;62.34;101170.53;4996534;28;71679;-75
2023/09/08 06:18:18;;;;;;;;;;;;;;;;;;;;;
2023/09/08 06:20:49;;;;;;;;;23.00;20.25;;;;;24.98;62.37;101152.78;4999148;28;71671;-76
2023/09/08 06:23:31;;;;;;;;;23.00;21.50;;;;;24.77;62.58;101110.81;4996714;28;47111;-75
2023/09/08 06:26:02;;;;;;;;;20.25;20.25;;;;;24.93;61.79;101140.38;4997183;28;45457;-76
2023/09/08 06:28:48;;;;;;;;;;;;;;;;;;;;;
2023/09/08 06:31:14;;;;;;;;;18.50;17.25;;;;;24.83;61.45;101133.13;4988261;28;71474;-76
2023/09/08 06:33:40;;;;;;;;;18.75;17.00;;;;;24.75;61.67;101129.16;4993539;28;45740;-76
2023/09/08 06:36:06;;;;;;;;;17.75;17.75;;;;;24.98;61.79;101167.28;4994574;28;45578;-76
2023/09/08 06:38:32;;;;;;;;;17.00;16.50;;;;;24.76;61.25;101133.66;4991081;28;45573;-76
2023/09/08 06:40:58;;;;;;;;;12.75;12.75;;;;;24.91;61.34;101160.63;4991882;28;47027;-76
2023/09/08 06:43:24;;;;;;;;;15.00;13.00;;;;;24.96;60.77;101172.03;4989603;28;46962;-75
2023/09/08 06:45:50;;;;;;;;;17.75;14.25;;;;;24.85;60.53;101151.09;5010310;28;45748;-76
2023/09/08 06:48:16;;;;;;;;;15.25;13.50;;;;;24.65;60.45;101116.47;4994793;28;45486;-76
2023/09/08 06:50:41;;;;;;;;;14.25;12.50;;;;;24.69;60.67;101126.09;4995031;28;45483;-76
2023/09/08 06:53:07;;;;;;;;;17.00;14.25;;;;;24.72;60.99;101129.44;4995096;28;45458;-76
2023/09/08 06:55:32;;;;;;;;;15.00;14.25;;;;;24.80;60.67;101141.56;4997440;28;45417;-76
2023/09/08 06:58:07;;;;;;;;;18.75;17.50;;;;;24.63;60.61;101115.75;4996079;28;45404;-75
2023/09/08 07:00:33;;;;;;;;;18.50;16.75;;;;;24.72;61.14;101128.56;4992842;28;46067;-77
2023/09/08 07:02:58;;;;;;;;;17.00;15.00;;;;;24.92;61.06;101155.00;4993765;28;46562;-78
2023/09/08 07:05:26;;;;;;;;;18.75;17.75;;;;;25.14;61.14;101196.84;4994950;28;45371;-78
2023/09/08 07:08:25;;;;;;;;;;;;;;;;;;;;;
2023/09/08 07:10:54;;;;;;;;;16.50;15.00;;;;;24.70;61.52;101114.19;4992509;28;71944;-78
2023/09/08 07:13:19;;;;;;;;;20.50;18.00;;;;;24.81;61.76;101126.91;4993433;28;46245;-69
2023/09/08 07:15:44;;;;;;;;;16.50;16.50;;;;;25.15;61.82;101190.41;4991156;28;45431;-71
2023/09/08 07:18:40;;;;;;;;;;;;;;;;;;;;;
2023/09/08 07:21:11;;;;;;;;;16.75;15.25;;;;;25.15;61.20;101184.94;4989689;28;71104;-71
2023/09/08 07:23:39;;;;;;;;;20.00;18.00;;;;;24.84;61.17;101130.25;4994959;28;46755;-71
2023/09/08 07:26:07;;;;;;;;;17.75;17.50;;;;;25.00;61.59;101154.34;4998612;28;45860;-71
2023/09/08 07:28:34;;;;;;;;;16.00;15.00;;;;;25.00;61.36;101153.50;4991725;28;45454;-71
2023/09/08 07:31:08;;;;;;;;;20.25;17.50;;;;;25.06;61.20;101156.56;5005025;28;45565;-70
2023/09/08 07:33:39;;;;;;;;;17.50;14.00;;;;;25.33;61.08;101193.41;4989019;28;45602;-67
2023/09/08 07:36:13;;;;;;;;;15.25;15.00;;;;;25.23;60.24;101181.53;4987737;28;45640;-70
2023/09/08 07:38:39;;;;;;;;;16.50;16.25;;;;;25.37;60.07;101188.53;4995993;28;45545;-67
2023/09/08 07:41:04;;;;;;;;;15.00;13.50;;;;;25.45;60.18;101197.78;4996008;28;45793;-66
2023/09/08 07:43:29;;;;;;;;;16.25;12.00;;;;;25.52;60.91;101203.59;4991539;28;47103;-69
2023/09/08 07:45:55;;;;;;;;;16.50;16.50;;;;;25.55;60.55;101191.53;4993680;28;45389;-68
2023/09/08 07:48:20;;;;;;;;;18.00;15.25;;;;;25.59;60.02;101193.81;4994343;28;46690;-70
2023/09/08 07:50:46;;;;;;;;;14.25;14.25;;;;;25.68;60.73;101205.84;4985412;28;45510;-68
2023/09/08 07:53:12;;;;;;;;;16.00;15.50;;;;;25.72;60.13;101195.47;4990847;28;46587;-67
2023/09/08 07:55:37;;;;;;;;;12.25;12.00;;;;;25.72;60.40;101187.28;4991173;28;45933;-67
2023/09/08 07:58:05;;;;;;;;;13.50;13.50;;;;;25.76;60.36;101192.34;4995946;28;45439;-67
2023/09/08 08:00:31;;;;;;;;;13.75;12.00;;;;;25.81;59.92;101187.31;4993619;28;45439;-70
2023/09/08 08:02:58;;;;;;;;;15.75;14.75;;;;;25.92;59.72;101189.06;4993042;28;46262;-67
2023/09/08 08:05:25;;;;;;;;;16.75;14.00;;;;;26.02;59.66;101194.63;4993052;28;45577;-68
2023/09/08 08:07:50;;;;;;;;;14.00;13.25;;;;;26.09;59.53;101198.50;4989636;28;45666;-69
2023/09/08 08:10:16;;;;;;;;;15.50;13.00;;;;;26.05;59.61;101186.13;4985082;28;45599;-68
2023/09/08 08:12:42;;;;;;;;;14.00;14.00;;;;;26.22;59.85;101204.59;4987539;28;45600;-68
2023/09/08 08:15:12;;;;;;;;;15.75;15.00;;;;;26.28;59.71;101200.44;4986292;28;45458;-69
2023/09/08 08:17:38;;;;;;;;;17.75;14.25;;;;;26.31;59.43;101200.16;4986598;28;45684;-68
2023/09/08 08:20:09;;;;;;;;;15.25;13.25;;;;;26.23;58.37;101173.50;4992926;28;45862;-71
2023/09/08 08:22:36;;;;;;;;;14.75;14.25;;;;;26.28;58.76;101172.19;4990367;28;46313;-71
2023/09/08 08:25:03;;;;;;;;;13.75;13.75;;;;;26.28;58.42;101166.72;4995192;28;45475;-71
2023/09/08 08:27:28;;;;;;;;;12.00;12.00;;;;;26.49;58.30;101185.78;4988165;28;45301;-71
2023/09/08 08:29:53;;;;;;;;;13.00;11.75;;;;;26.46;58.25;101175.09;4989985;28;45478;-71
2023/09/08 08:32:19;;;;;;;;;12.50;12.00;;;;;26.65;58.10;101197.06;4995528;28;45947;-70
2023/09/08 08:34:45;;;;;;;;;14.50;13.25;;;;;26.78;58.56;101210.44;4986826;28;45317;-71
2023/09/08 08:37:10;;;;;;;;;11.75;11.75;;;;;26.71;58.42;101192.88;5007456;28;45672;-70
2023/09/08 08:39:36;;;;;;;;;15.00;13.25;;;;;26.86;57.88;101196.03;4989633;28;45525;-70
2023/09/08 08:42:09;;;;;;;;;16.50;13.50;;;;;27.02;57.38;101214.63;4989113;28;46465;-71
2023/09/08 08:44:34;;;;;;;;;15.75;15.75;;;;;27.01;57.40;101200.06;4995225;28;45540;-70
2023/09/08 08:47:02;;;;;;;;;16.00;14.00;;;;;27.14;57.18;101214.31;4991056;28;45415;-71
2023/09/08 08:49:28;;;;;;;;;12.25;12.25;;;;;27.08;58.12;101192.13;4991057;28;45802;-71
2023/09/08 08:51:54;;;;;;;;;15.50;15.50;;;;;27.10;57.79;101195.59;4988923;28;47232;-71
2023/09/08 08:54:20;;;;;;;;;14.25;14.25;;;;;27.22;57.05;101197.16;4995891;28;45437;-72
2023/09/08 08:56:46;;;;;;;;;11.25;11.25;;;;;27.38;56.65;101214.88;4996116;28;45378;-72
2023/09/08 08:59:12;;;;;;;;;17.50;16.00;;;;;27.32;57.28;101189.78;4985958;28;45321;-72
2023/09/08 09:01:41;;;;;;;;;16.00;14.75;;;;;27.44;57.04;101192.38;4994466;28;46802;-72
2023/09/08 09:04:07;;;;;;;;;15.75;15.75;;;;;27.59;56.80;101218.28;4988203;28;45453;-72
2023/09/08 09:06:33;;;;;;;;;16.50;15.00;;;;;27.71;56.85;101222.56;4994207;28;45477;-72
2023/09/08 09:09:00;;;;;;;;;13.00;11.25;;;;;27.72;56.92;101207.00;4987507;28;45532;-72
2023/09/08 09:11:26;;;;;;;;;15.25;14.25;;;;;27.79;55.70;101204.50;4995560;28;46656;-72
2023/09/08 09:13:51;;;;;;;;;12.50;11.75;;;;;27.90;55.49;101210.66;4997323;28;45470;-72
2023/09/08 09:16:16;;;;;;;;;12.25;12.25;;;;;28.03;55.43;101220.44;5007491;28;46165;-72
2023/09/08 09:18:55;;;;;;;;;11.75;11.75;;;;;28.14;55.79;101219.38;4995837;28;45420;-72
2023/09/08 09:21:21;;;;;;;;;15.25;11.75;;;;;28.07;56.43;101195.28;4993577;28;45518;-72
2023/09/08 09:23:46;;;;;;;;;14.00;13.00;;;;;28.16;55.62;101203.63;4992568;28;46149;-72
2023/09/08 09:26:26;;;;;;;;;12.00;12.00;;;;;28.30;55.94;101214.09;4997921;28;45496;-72
2023/09/08 09:28:53;;;;;;;;;12.25;11.75;;;;;28.41;55.56;101218.50;4986369;28;45494;-72
2023/09/08 09:31:22;;;;;;;;;9.50;9.50;;;;;28.49;55.23;101220.47;4995881;28;47546;-72
2023/09/08 09:33:47;;;;;;;;;11.50;11.50;;;;;28.53;54.74;101214.50;4995127;28;45531;-72
2023/09/08 09:36:22;;;;;;;;;13.25;12.00;;;;;28.61;54.40;101208.25;4993655;28;45435;-72
2023/09/08 09:38:47;;;;;;;;;10.00;10.00;;;;;28.63;54.29;101196.13;4993598;28;45498;-72
2023/09/08 09:41:13;;;;;;;;;12.50;12.25;;;;;28.79;53.96;101209.13;4991961;28;45387;-72
2023/09/08 09:43:38;;;;;;;;;14.75;12.75;;;;;28.70;53.55;101196.34;5000053;28;45415;-72
2023/09/08 09:46:08;;;;;;;;;11.00;11.00;;;;;28.88;53.72;101206.44;4995874;28;45543;-72
2023/09/08 09:48:35;;;;;;;;;12.50;11.25;;;;;28.88;52.72;101189.97;4994486;28;45634;-72
2023/09/08 09:51:15;;;;;;;;;12.50;12.50;;;;;28.91;52.68;101181.41;4988516;28;46874;-72
2023/09/08 09:53:42;;;;;;;;;12.75;11.75;;;;;29.01;52.06;101190.41;4994673;28;46110;-72
2023/09/08 09:56:09;;;;;;;;;12.50;12.25;;;;;29.18;52.69;101200.53;4992928;28;45489;-72
2023/09/08 09:58:37;;;;;;;;;14.00;12.00;;;;;29.12;52.49;101170.03;4993737;28;45492;-71
2023/09/08 10:01:03;;;;;;;;;14.50;12.75;;;;;29.31;52.16;101185.50;4984348;28;46548;-72
2023/09/08 10:03:30;;;;;;;;;16.00;13.00;;;;;29.35;51.86;101189.66;4996044;28;45516;-72
2023/09/08 10:05:56;;;;;;;;;11.75;9.50;;;;;29.38;52.24;101190.19;4992266;28;45557;-72
2023/09/08 10:08:22;;;;;;;;;12.25;12.25;;;;;29.51;51.50;101206.25;4989718;28;46046;-73
2023/09/08 10:10:47;;;;;;;;;12.25;11.75;;;;;29.52;51.63;101186.00;4994112;28;46788;-73
2023/09/08 10:13:17;;;;;;;;;13.50;11.75;;;;;29.44;51.88;101163.94;4993329;28;45580;-72
2023/09/08 10:15:45;;;;;;;;;13.25;12.50;;;;;29.67;51.37;101193.63;4990472;28;45483;-71
2023/09/08 10:18:16;;;;;;;;;10.75;10.75;;;;;29.59;51.18;101177.06;4993567;28;45394;-72
2023/09/08 10:20:42;;;;;;;;;9.00;9.00;;;;;29.81;50.42;101201.28;4987588;28;46931;-72
2023/09/08 10:23:16;;;;;;;;;16.50;13.75;;;;;29.86;50.79;101198.91;4992816;28;45510;-72
2023/09/08 10:25:53;;;;;;;;;13.25;11.25;;;;;29.68;51.20;101156.84;4991069;28;45530;-71
2023/09/08 10:28:19;;;;;;;;;10.75;10.75;;;;;29.86;49.94;101185.16;4995768;28;45828;-72
2023/09/08 10:30:45;;;;;;;;;14.00;10.25;;;;;29.95;50.53;101175.03;4990370;28;45473;-72
2023/09/08 10:33:11;;;;;;;;;11.00;10.50;;;;;30.02;49.60;101181.63;4997942;28;45438;-73
2023/09/08 10:35:37;;;;;;;;;11.50;10.75;;;;;30.10;49.11;101189.91;4993413;28;45391;-73
2023/09/08 10:38:26;;;;;;;;;12.00;11.00;;;;;30.06;48.92;101168.38;4995254;28;45577;-73
2023/09/08 10:40:52;;;;;;;;;12.00;11.75;;;;;30.27;49.28;101203.69;4993593;28;47348;-72
2023/09/08 10:43:19;;;;;;;;;15.50;14.00;;;;;30.19;48.92;101170.63;4988788;28;45555;-73
2023/09/08 10:45:46;;;;;;;;;12.00;11.00;;;;;30.22;48.55;101164.78;4994101;28;45427;-73
2023/09/08 10:48:14;;;;;;;;;13.50;12.75;;;;;30.39;48.91;101182.25;4986375;28;45479;-73
2023/09/08 10:50:41;;;;;;;;;11.00;11.00;;;;;30.42;49.11;101176.41;4983482;28;45644;-73
2023/09/08 10:53:19;;;;;;;;;14.25;11.25;;;;;30.58;48.33;101190.19;4992185;28;45475;-73
2023/09/08 10:55:53;;;;;;;;;15.00;14.00;;;;;30.56;48.68;101173.00;4993191;28;46723;-73
2023/09/08 10:58:19;;;;;;;;;12.25;12.00;;;;;30.58;48.81;101168.16;4996635;28;45572;-73
2023/09/08 11:00:54;;;;;;;;;16.00;13.50;;;;;30.73;48.08;101181.25;4984935;28;46340;-74
2023/09/08 11:03:38;;;;;;;;;13.00;13.00;;;;;30.66;47.81;101159.91;4995682;28;46016;-74
2023/09/08 11:06:05;;;;;;;;;12.00;9.75;;;;;30.73;47.60;101149.06;4989399;28;45455;-73
2023/09/08 11:08:30;;;;;;;;;15.00;13.75;;;;;30.91;47.99;101167.31;4988445;28;45749;-72
2023/09/08 11:10:56;;;;;;;;;11.00;10.00;;;;;31.03;47.11;101183.34;4993723;28;47326;-73
2023/09/08 11:13:22;;;;;;;;;12.25;11.75;;;;;30.74;47.34;101130.63;4989254;28;45328;-74
2023/09/08 11:15:47;;;;;;;;;9.75;9.75;;;;;30.98;47.15;101154.59;4990732;28;45473;-74